Lick Creek, Illinois
Current Conditions -  °F | °C
As of 9:53 AM on Saturday 20 Dec 2014 (Local Time) from KMWA Reporting Station
Overcast Overcast  
Wind Chill: 31°   Ceiling: 4400
Heat Index: 36°   Visibility: 10mi
Dew Point: 30°   Wind: 6mph
Humidity: 81%   Direction: 130°SE
Pressure: 30.32"   Gusts: NA
Location:  37.4664°N, 88.9884°W
Report Text: KMWA 201553Z 13005KT 10SM OVC044 02/M01 A3032
Loading
Personal Weather Stations






























Interactive Weather Map New forecast layout! Learn more

10-Day Weather Forecast

Advertisements
Track Severe Weather on mobile